createdAt,value
2019-06-01T06:17:28.187Z,18.60
2019-06-01T06:20:18.693Z,17.20
2019-06-01T06:23:14.037Z,15.00
2019-06-01T06:26:04.946Z,13.70
2019-06-01T06:29:08.023Z,13.50
2019-06-01T06:31:58.696Z,13.70
2019-06-01T06:34:50.693Z,13.20
2019-06-01T06:37:42.424Z,13.50
2019-06-01T06:40:34.474Z,13.60
2019-06-01T06:43:31.047Z,13.60
2019-06-01T06:46:16.543Z,13.50
2019-06-01T06:49:09.800Z,13.60
2019-06-01T06:51:58.033Z,13.40
2019-06-01T06:54:47.508Z,13.50
2019-06-01T06:57:37.615Z,13.50
2019-06-01T07:00:27.592Z,13.60
2019-06-01T07:03:18.867Z,13.70
2019-06-01T07:06:10.074Z,13.80
2019-06-01T07:08:59.817Z,13.50
2019-06-01T07:11:53.254Z,13.60
2019-06-01T07:14:43.644Z,13.80
2019-06-01T07:17:34.890Z,13.50
2019-06-01T07:20:25.693Z,13.90
2019-06-01T07:23:16.233Z,14.10
2019-06-01T07:26:10.195Z,13.90
2019-06-01T07:29:00.364Z,14.10
2019-06-01T07:31:50.876Z,14.40
2019-06-01T07:34:42.807Z,13.90
2019-06-01T07:37:33.207Z,14.40
2019-06-01T07:40:24.801Z,14.90
2019-06-01T07:43:15.179Z,15.20
2019-06-01T07:46:06.294Z,15.00
2019-06-01T07:48:55.915Z,14.90
2019-06-01T07:51:46.589Z,15.40
2019-06-01T07:54:38.149Z,16.00
2019-06-01T07:57:27.862Z,16.20
2019-06-01T08:00:18.225Z,15.80
2019-06-01T08:03:16.867Z,15.90
2019-06-01T08:06:12.289Z,16.60
2019-06-01T08:09:05.060Z,16.50
2019-06-01T08:11:54.959Z,16.60
2019-06-01T08:14:45.564Z,16.90
2019-06-01T08:17:35.882Z,17.40
2019-06-01T08:20:26.155Z,17.80
2019-06-01T08:23:16.686Z,17.90
2019-06-01T08:26:06.707Z,18.50
2019-06-01T08:28:58.550Z,18.00
2019-06-01T08:31:48.420Z,18.80
2019-06-01T08:34:38.009Z,19.10
2019-06-01T08:37:37.451Z,19.20
2019-06-01T08:40:50.097Z,19.50
2019-06-01T08:43:41.218Z,19.30
2019-06-01T08:46:34.088Z,19.40
2019-06-01T08:49:35.042Z,19.40
2019-06-01T08:52:30.362Z,19.50
2019-06-01T08:55:30.190Z,19.80
2019-06-01T08:58:26.114Z,20.50
2019-06-01T09:01:17.432Z,21.50
2019-06-01T09:04:07.642Z,21.80
2019-06-01T09:06:59.639Z,21.70
2019-06-01T09:09:49.827Z,22.40
2019-06-01T09:12:39.883Z,22.90
2019-06-01T09:15:31.446Z,23.20
2019-06-01T09:18:21.569Z,23.10
2019-06-01T09:21:12.268Z,23.70
2019-06-01T09:24:03.608Z,23.80
2019-06-01T09:26:54.880Z,24.00
2019-06-01T09:29:52.285Z,23.70
2019-06-01T09:32:47.980Z,23.00
2019-06-01T09:35:53.692Z,21.00
2019-06-01T09:38:29.693Z,20.30
2019-06-01T09:41:21.735Z,21.20
2019-06-01T09:44:15.322Z,21.40
2019-06-01T09:47:07.127Z,21.70
2019-06-01T09:49:57.041Z,22.30
2019-06-01T09:52:47.889Z,23.20
2019-06-01T09:55:42.690Z,23.90
2019-06-01T09:58:32.785Z,24.50
2019-06-01T10:01:22.893Z,24.70
2019-06-01T10:04:13.051Z,25.40
2019-06-01T10:07:03.708Z,25.30
2019-06-01T10:09:56.435Z,25.30
2019-06-01T10:13:07.504Z,25.40
2019-06-01T10:15:50.284Z,25.80
2019-06-01T10:18:50.166Z,26.30
2019-06-01T10:22:01.389Z,26.10
2019-06-01T10:24:57.613Z,25.60
2019-06-01T10:27:55.766Z,25.20
2019-06-01T10:30:45.994Z,25.20
2019-06-01T10:33:39.120Z,25.50
2019-06-01T10:36:33.957Z,25.80
2019-06-01T10:39:22.497Z,25.40
2019-06-01T10:42:16.289Z,24.60
2019-06-01T10:45:07.413Z,24.90
2019-06-01T10:48:01.906Z,24.60
2019-06-01T10:50:57.559Z,24.60
2019-06-01T10:54:07.435Z,25.40
2019-06-01T10:56:49.692Z,26.10
2019-06-01T10:59:44.810Z,26.00
2019-06-01T11:02:38.674Z,26.70
2019-06-01T11:05:43.413Z,27.80
2019-06-01T11:08:58.351Z,28.60
2019-06-01T11:11:47.396Z,28.70
2019-06-01T11:14:43.226Z,28.40
2019-06-01T11:17:39.701Z,28.00
2019-06-01T11:20:41.616Z,27.50
2019-06-01T11:23:35.526Z,27.00
2019-06-01T11:26:41.849Z,26.70
2019-06-01T11:32:46.442Z,26.60
2019-06-01T11:35:43.420Z,26.50
2019-06-01T11:38:58.742Z,26.60
2019-06-01T11:41:49.101Z,26.30
2019-06-01T11:44:39.136Z,26.10
2019-06-01T11:47:50.815Z,26.00
2019-06-01T11:50:35.163Z,25.70
2019-06-01T11:53:25.589Z,26.30
2019-06-01T11:56:18.656Z,26.10
2019-06-01T11:59:09.253Z,26.40
2019-06-01T12:02:00.002Z,26.60
2019-06-01T12:04:50.586Z,26.10
2019-06-01T12:07:41.978Z,26.30
2019-06-01T12:10:32.701Z,26.00
2019-06-01T12:13:25.360Z,25.90
2019-06-01T12:16:20.386Z,26.10
2019-06-01T12:19:20.379Z,26.40
2019-06-01T12:22:47.667Z,25.80
2019-06-01T12:25:30.784Z,25.20
2019-06-01T12:28:41.526Z,24.70
2019-06-01T12:31:49.670Z,23.90
2019-06-01T12:35:02.830Z,23.60
2019-06-01T12:38:06.177Z,23.50
2019-06-01T12:40:48.799Z,23.70
2019-06-01T12:43:46.139Z,23.10
2019-06-01T12:46:34.197Z,23.30
2019-06-01T12:49:24.099Z,23.20
2019-06-01T12:52:14.029Z,23.50
2019-06-01T12:55:04.800Z,23.70
2019-06-01T12:58:02.626Z,23.40
2019-06-01T13:00:54.588Z,23.10
2019-06-01T13:03:49.658Z,23.50
2019-06-01T13:06:44.634Z,23.70
2019-06-01T13:09:35.272Z,24.00
2019-06-01T13:12:25.411Z,24.20
2019-06-01T13:15:15.564Z,24.40
2019-06-01T13:18:05.434Z,23.60
2019-06-01T13:20:55.193Z,23.20
2019-06-01T13:23:48.176Z,23.80
2019-06-01T13:26:38.544Z,23.40
2019-06-01T13:29:27.989Z,23.20
2019-06-01T13:32:17.722Z,23.30
2019-06-01T13:35:07.623Z,23.10
2019-06-01T13:38:10.703Z,23.40
2019-06-01T13:40:49.102Z,23.90
2019-06-01T13:43:40.471Z,24.20
2019-06-01T13:46:29.969Z,24.60
2019-06-01T13:49:19.686Z,23.90
2019-06-01T13:52:09.260Z,24.50
2019-06-01T13:55:00.305Z,24.10
2019-06-01T13:57:50.429Z,24.00
2019-06-01T14:00:42.144Z,23.70
2019-06-01T14:03:31.954Z,23.40
2019-06-01T14:06:21.575Z,23.20
2019-06-01T14:09:11.560Z,22.70
2019-06-01T14:12:01.203Z,23.00
2019-06-01T14:14:51.509Z,23.00
2019-06-01T14:17:41.366Z,22.80
2019-06-01T14:20:30.813Z,23.00
2019-06-01T14:23:20.474Z,23.10
2019-06-01T14:26:10.044Z,23.10
2019-06-01T14:28:59.820Z,23.30
2019-06-01T14:31:50.779Z,23.40
2019-06-01T14:34:40.543Z,23.60
2019-06-01T14:37:30.101Z,23.60
2019-06-01T14:40:19.533Z,24.00
2019-06-01T14:43:09.045Z,24.00
2019-06-01T14:46:00.532Z,24.20
2019-06-01T14:48:51.481Z,24.30
2019-06-01T14:51:41.178Z,24.50
2019-06-01T14:54:30.866Z,24.60
2019-06-01T14:57:20.382Z,25.00
2019-06-01T15:00:11.098Z,24.60
2019-06-01T15:03:01.928Z,24.30
2019-06-01T15:05:52.809Z,24.40
2019-06-01T15:08:42.600Z,24.40
2019-06-01T15:11:32.562Z,23.80
2019-06-01T15:14:23.342Z,23.30
2019-06-01T15:17:12.955Z,24.00
2019-06-01T15:20:02.814Z,24.10
2019-06-01T15:22:52.686Z,24.20
2019-06-01T15:25:42.652Z,24.50
2019-06-01T15:28:32.011Z,24.90
2019-06-01T15:31:21.617Z,24.60
2019-06-01T15:34:10.985Z,24.20
2019-06-01T15:37:01.769Z,24.80
2019-06-01T15:39:52.599Z,24.20
2019-06-01T15:42:42.772Z,24.40
2019-06-01T15:45:32.425Z,24.10
2019-06-01T15:48:22.167Z,24.10
2019-06-01T15:51:11.898Z,24.20
2019-06-01T15:54:03.218Z,23.70
2019-06-01T15:56:52.740Z,23.70
2019-06-01T15:59:42.322Z,23.20
2019-06-01T16:02:36.416Z,23.40
2019-06-01T16:05:30.438Z,22.90
2019-06-01T16:08:22.120Z,22.90
2019-06-01T16:11:13.195Z,22.60
2019-06-01T16:14:05.032Z,22.30
2019-06-01T16:16:55.794Z,22.30
2019-06-01T16:19:50.094Z,22.60
2019-06-01T16:22:39.972Z,22.40
2019-06-01T16:25:30.210Z,22.20
2019-06-01T16:28:21.573Z,22.20
2019-06-01T16:31:11.302Z,22.20
2019-06-01T16:34:05.775Z,22.20
2019-06-01T16:37:01.104Z,22.10
2019-06-01T16:40:02.033Z,22.10
2019-06-01T16:42:44.027Z,21.80
2019-06-01T16:45:34.794Z,21.70
2019-06-01T16:48:24.450Z,21.60
2019-06-01T16:51:14.082Z,21.60
2019-06-01T16:54:06.351Z,21.60
2019-06-01T16:56:59.501Z,21.30
2019-06-01T16:59:49.547Z,21.50
2019-06-01T17:02:42.166Z,21.70
2019-06-01T17:05:31.771Z,21.40
2019-06-01T17:08:25.011Z,21.40
2019-06-01T17:11:16.858Z,20.90
2019-06-01T17:14:08.268Z,21.10
2019-06-01T17:16:58.981Z,21.20
2019-06-01T17:19:48.995Z,21.00
2019-06-01T17:22:38.647Z,21.00
2019-06-01T17:25:28.373Z,21.10
2019-06-01T17:28:18.369Z,21.00
2019-06-01T17:31:08.455Z,20.80
2019-06-01T17:34:02.516Z,20.50
2019-06-01T17:36:52.580Z,20.70
2019-06-01T17:39:42.576Z,20.70
2019-06-01T17:42:32.409Z,20.70
2019-06-01T17:45:22.447Z,20.70
2019-06-01T17:48:24.599Z,20.80
2019-06-01T17:51:06.644Z,20.40
2019-06-01T17:53:56.703Z,20.50
2019-06-01T17:56:47.151Z,20.60
2019-06-01T17:59:36.900Z,20.30
2019-06-01T18:02:27.810Z,20.20
2019-06-01T18:05:31.133Z,20.00
2019-06-01T18:08:22.077Z,20.00
2019-06-01T18:11:14.143Z,20.00
2019-06-01T18:14:06.132Z,19.90
2019-06-01T18:16:56.607Z,19.80
2019-06-01T18:19:46.695Z,19.80
2019-06-01T18:22:36.929Z,20.00
2019-06-01T18:25:29.012Z,20.00
2019-06-01T18:28:22.148Z,20.00
2019-06-01T18:31:12.841Z,19.90
2019-06-01T18:34:03.837Z,19.50
2019-06-01T18:36:55.185Z,19.60
2019-06-01T18:39:48.009Z,19.50
2019-06-01T18:42:37.950Z,19.60
2019-06-01T18:45:28.193Z,19.50
2019-06-01T18:48:18.202Z,18.80
2019-06-01T18:51:10.159Z,19.10
2019-06-01T18:54:00.517Z,19.10
2019-06-01T18:56:51.369Z,18.70
2019-06-01T18:59:46.590Z,18.90
2019-06-01T19:02:36.710Z,19.00
2019-06-01T19:05:30.207Z,18.70
2019-06-01T19:08:20.099Z,18.80
2019-06-01T19:11:32.840Z,18.90
2019-06-01T19:14:15.933Z,18.90
2019-06-01T19:17:08.234Z,18.80
2019-06-01T19:19:58.509Z,18.80
2019-06-01T19:22:50.022Z,18.60
2019-06-01T19:25:41.619Z,18.70
2019-06-01T19:28:33.585Z,18.60
2019-06-01T19:31:28.418Z,18.50
2019-06-01T19:34:20.082Z,18.40
2019-06-01T19:37:23.651Z,18.70
2019-06-01T19:40:09.303Z,18.50
2019-06-01T19:42:59.123Z,18.50
2019-06-01T19:45:49.712Z,18.40
2019-06-01T19:48:39.439Z,18.40
2019-06-01T19:51:29.243Z,18.40
2019-06-01T19:54:19.194Z,18.30
2019-06-01T19:57:11.800Z,18.30
2019-06-01T20:00:04.703Z,18.30
2019-06-01T20:02:54.285Z,18.40
2019-06-01T20:05:48.097Z,18.30
2019-06-01T20:08:38.313Z,18.20
2019-06-01T20:11:27.944Z,18.00
2019-06-01T20:14:23.790Z,17.90
2019-06-01T20:17:17.685Z,18.00
2019-06-01T20:20:08.880Z,18.10
2019-06-01T20:22:59.352Z,18.10
2019-06-01T20:25:52.428Z,18.00
2019-06-01T20:28:42.726Z,18.10
2019-06-01T20:31:33.105Z,17.90
2019-06-01T20:34:23.066Z,18.00
2019-06-01T20:37:14.378Z,18.00
2019-06-01T20:40:07.604Z,18.00
2019-06-01T20:42:58.200Z,17.90
2019-06-01T20:45:51.482Z,18.00
2019-06-01T20:48:41.354Z,18.00
2019-06-01T20:51:32.643Z,17.90
2019-06-01T20:54:23.204Z,17.80
2019-06-01T20:57:13.691Z,17.80
2019-06-01T21:00:07.829Z,17.60
2019-06-01T21:03:00.563Z,17.60
2019-06-01T21:05:53.320Z,17.70
2019-06-01T21:08:45.173Z,17.70
2019-06-01T21:11:35.859Z,17.70
2019-06-01T21:14:26.875Z,17.70
2019-06-01T21:17:18.461Z,17.70
2019-06-01T21:20:09.406Z,17.60
2019-06-01T21:22:59.938Z,17.60
2019-06-01T21:25:51.359Z,17.50
2019-06-01T21:28:41.038Z,17.60
2019-06-01T21:31:31.205Z,17.60
2019-06-01T21:34:23.926Z,17.60
2019-06-01T21:37:17.497Z,17.40
2019-06-01T21:40:11.931Z,17.30
2019-06-01T21:43:20.243Z,17.40
2019-06-01T21:45:52.729Z,17.20
2019-06-01T21:48:42.719Z,17.30
2019-06-01T21:51:32.434Z,17.10
2019-06-01T21:54:24.597Z,16.90
2019-06-01T21:57:16.053Z,17.00
2019-06-01T22:00:10.306Z,16.90
2019-06-01T22:03:01.599Z,16.90
2019-06-01T22:05:51.525Z,16.90
2019-06-01T22:08:41.794Z,16.80
2019-06-01T22:11:33.004Z,16.80
2019-06-01T22:14:25.789Z,16.70
2019-06-01T22:20:40.159Z,16.60
2019-06-01T22:23:30.341Z,16.60
2019-06-01T22:26:22.058Z,16.50
2019-06-01T22:29:12.700Z,16.40
2019-06-01T22:32:03.230Z,16.40
2019-06-01T22:34:55.713Z,16.30
2019-06-01T22:37:45.606Z,16.30
2019-06-01T22:40:35.709Z,16.40
2019-06-01T22:43:39.264Z,16.40
2019-06-01T22:46:18.496Z,16.30
2019-06-01T22:49:09.101Z,16.10
2019-06-01T22:51:59.493Z,16.20
2019-06-01T22:54:49.193Z,16.30
2019-06-01T22:57:42.986Z,16.10
2019-06-01T23:00:31.998Z,16.20
2019-06-01T23:03:23.935Z,16.10
2019-06-01T23:06:13.763Z,16.30
2019-06-01T23:09:05.632Z,16.30
2019-06-01T23:11:56.264Z,16.20
2019-06-01T23:14:47.512Z,16.30
2019-06-01T23:21:03.653Z,16.30
2019-06-01T23:23:54.077Z,16.40
2019-06-01T23:26:46.217Z,16.40
2019-06-01T23:29:38.798Z,16.50
2019-06-01T23:32:32.626Z,16.40
2019-06-01T23:35:24.362Z,16.30
2019-06-01T23:38:17.300Z,16.30
2019-06-01T23:41:07.524Z,16.20
2019-06-01T23:44:11.173Z,16.40
2019-06-01T23:46:53.463Z,16.30
2019-06-01T23:49:47.240Z,16.30
2019-06-01T23:52:38.644Z,16.40
2019-06-01T23:55:32.467Z,16.30
2019-06-01T23:58:24.026Z,16.40
